Time;durP1;ratioP1;P1;durP2;ratioP2;P2;SDS_P1;SDS_P2;PMS_P1;PMS_P2;Temp;Humidity;BMP_temperature;BMP_pressure;BME280_temperature;BME280_humidity;BME280_pressure;Samples;Min_cycle;Max_cycle;Signal;HPM_P1;HPM_P2
2021/08/25 00:01:32;;;;;;;10.13;9.07;;;;;;;16.74;60.02;102563.41;5990103;29;20239;-51
2021/08/25 00:04:54;;;;;;;11.50;9.00;;;;;;;16.71;60.21;102560.81;5993486;29;20244;-49
2021/08/25 00:08:15;;;;;;;12.27;7.65;;;;;;;16.67;60.56;102555.56;5991510;29;20322;-47
2021/08/25 00:11:36;;;;;;;10.68;9.18;;;;;;;16.56;61.03;102547.78;5992581;29;20239;-49
2021/08/25 00:14:57;;;;;;;11.07;8.53;;;;;;;16.37;61.81;102536.47;5995400;29;20239;-46
2021/08/25 00:18:20;;;;;;;8.07;7.20;;;;;;;16.50;61.45;102537.28;5993746;29;20509;-51
2021/08/25 00:21:42;;;;;;;11.40;8.63;;;;;;;16.43;61.84;102532.94;5994254;29;20231;-50
2021/08/25 00:25:03;;;;;;;10.20;8.30;;;;;;;16.37;62.05;102525.09;5992730;29;20507;-51
2021/08/25 00:28:24;;;;;;;11.20;8.27;;;;;;;16.17;62.93;102527.81;5993331;29;20325;-49
2021/08/25 00:31:44;;;;;;;9.50;8.07;;;;;;;16.25;62.53;102528.69;5993444;29;20633;-52
2021/08/25 00:35:08;;;;;;;9.50;7.93;;;;;;;16.41;61.88;102530.31;5995181;29;20235;-49
2021/08/25 00:38:29;;;;;;;10.60;8.63;;;;;;;16.32;62.36;102528.63;5994778;29;20239;-52
2021/08/25 00:41:50;;;;;;;8.83;7.53;;;;;;;16.30;62.01;102525.16;5996995;29;20231;-48
2021/08/25 00:45:12;;;;;;;11.63;8.80;;;;;;;16.28;62.09;102524.25;6002236;29;20621;-51
2021/08/25 00:48:33;;;;;;;11.93;9.60;;;;;;;16.34;61.84;102516.34;5995891;29;20585;-52
2021/08/25 00:51:55;;;;;;;11.23;7.90;;;;;;;16.40;61.76;102510.19;6000127;29;20341;-50
2021/08/25 00:55:16;;;;;;;8.87;7.97;;;;;;;16.06;63.02;102499.00;5996543;29;20234;-49
2021/08/25 00:58:41;;;;;;;9.13;7.60;;;;;;;15.99;63.04;102499.88;5992585;29;20232;-50
2021/08/25 01:02:11;;;;;;;10.17;8.73;;;;;;;16.20;62.54;102501.53;5997310;29;20235;-49
2021/08/25 01:05:35;;;;;;;9.27;7.23;;;;;;;16.17;62.47;102499.81;5997242;29;20239;-51
2021/08/25 01:09:00;;;;;;;8.53;7.73;;;;;;;16.20;62.42;102497.16;5982127;29;20231;-48
2021/08/25 01:12:22;;;;;;;8.20;7.40;;;;;;;16.02;63.12;102492.00;6002582;29;20235;-54
2021/08/25 01:15:43;;;;;;;8.40;7.50;;;;;;;16.16;62.73;102484.03;6002250;29;20629;-52
2021/08/25 01:19:05;;;;;;;10.70;8.83;;;;;;;16.08;62.68;102481.47;5999466;29;20235;-51
2021/08/25 01:22:27;;;;;;;9.30;8.30;;;;;;;16.04;62.95;102477.97;6002872;29;20231;-49
2021/08/25 01:25:51;;;;;;;9.00;7.90;;;;;;;15.88;63.42;102471.06;6007856;29;20321;-51
2021/08/25 01:29:21;;;;;;;10.33;8.00;;;;;;;15.87;63.64;102461.41;6000488;29;20240;-50
2021/08/25 01:32:42;;;;;;;10.60;9.50;;;;;;;16.08;62.66;102456.03;6002836;29;20457;-51
2021/08/25 01:36:02;;;;;;;8.60;7.53;;;;;;;16.00;62.97;102452.59;6005305;29;20801;-52
2021/08/25 01:39:23;;;;;;;8.83;7.90;;;;;;;15.92;63.08;102457.03;6008366;29;20903;-49
2021/08/25 01:42:46;;;;;;;9.60;8.60;;;;;;;15.94;63.04;102458.75;5996372;29;20242;-53
2021/08/25 01:46:17;;;;;;;10.80;8.40;;;;;;;15.80;63.83;102450.09;6005838;29;20654;-49
2021/08/25 01:49:38;;;;;;;9.77;8.40;;;;;;;15.60;64.30;102446.63;6004607;29;20235;-52
2021/08/25 01:52:59;;;;;;;10.67;8.50;;;;;;;15.77;64.02;102438.72;6000834;29;20235;-50
2021/08/25 01:56:20;;;;;;;9.67;8.67;;;;;;;15.48;65.22;102439.69;6000521;29;20574;-51
2021/08/25 01:59:41;;;;;;;9.53;8.50;;;;;;;15.49;65.29;102423.91;6001389;29;20518;-50
2021/08/25 02:03:03;;;;;;;8.50;7.20;;;;;;;15.71;64.28;102414.19;6001481;29;20235;-50
2021/08/25 02:06:24;;;;;;;9.30;7.43;;;;;;;15.99;63.19;102418.44;6001067;29;20243;-47
2021/08/25 02:09:45;;;;;;;9.13;8.10;;;;;;;15.68;64.07;102415.94;5999969;29;20514;-53
2021/08/25 02:13:06;;;;;;;8.57;7.23;;;;;;;15.65;64.17;102406.34;6002654;29;20299;-49
2021/08/25 02:16:28;;;;;;;8.23;7.40;;;;;;;15.74;64.09;102402.81;5996903;29;20252;-51
2021/08/25 02:19:50;;;;;;;8.63;7.07;;;;;;;15.80;63.86;102399.28;5999051;29;20545;-48
2021/08/25 02:23:11;;;;;;;9.23;8.17;;;;;;;15.58;64.67;102391.47;6009121;29;20223;-49
2021/08/25 02:26:32;;;;;;;10.40;7.73;;;;;;;15.56;64.71;102399.34;5999966;29;20250;-51
2021/08/25 02:29:56;;;;;;;10.53;8.13;;;;;;;15.38;65.62;102394.22;5999819;29;20234;-47
2021/08/25 02:33:17;;;;;;;9.83;7.70;;;;;;;15.46;65.29;102391.56;6000109;29;20239;-51
2021/08/25 02:36:40;;;;;;;8.43;7.57;;;;;;;15.37;65.38;102395.06;6002581;29;20323;-50
2021/08/25 02:40:00;;;;;;;9.50;7.87;;;;;;;15.41;65.27;102395.94;6001259;29;20231;-50
2021/08/25 02:43:22;;;;;;;8.30;7.50;;;;;;;15.52;65.00;102394.16;6003199;29;20622;-53
2021/08/25 02:46:42;;;;;;;8.97;8.10;;;;;;;15.41;65.52;102388.06;5995497;29;20236;-48
2021/08/25 02:50:04;;;;;;;9.43;7.93;;;;;;;15.46;65.45;102386.31;6006089;29;20239;-48
2021/08/25 02:53:26;;;;;;;9.40;8.50;;;;;;;15.58;65.04;102380.13;6002278;29;20223;-50
2021/08/25 02:56:49;;;;;;;10.23;7.93;;;;;;;15.54;64.96;102379.25;5998604;29;20239;-49
2021/08/25 03:00:12;;;;;;;10.70;8.60;;;;;;;15.74;64.62;102374.81;5999603;29;20240;-50
2021/08/25 03:03:33;;;;;;;15.27;8.50;;;;;;;15.48;65.69;102369.66;5996471;29;20244;-50
2021/08/25 03:06:54;;;;;;;11.67;7.23;;;;;;;15.55;65.36;102360.00;5997699;29;20267;-48
2021/08/25 03:10:17;;;;;;;9.37;8.40;;;;;;;15.59;65.77;102359.09;5996491;29;20235;-47
2021/08/25 03:13:38;;;;;;;9.87;7.10;;;;;;;15.73;65.35;102359.06;5996731;29;20673;-49
2021/08/25 03:16:59;;;;;;;12.07;8.47;;;;;;;15.66;65.66;102352.06;6002080;29;20239;-53
2021/08/25 03:20:20;;;;;;;11.00;8.83;;;;;;;15.84;65.56;102351.09;5994576;29;20247;-49
2021/08/25 03:23:41;;;;;;;9.13;8.13;;;;;;;15.92;66.06;102344.91;6006835;29;20258;-49
2021/08/25 03:27:03;;;;;;;8.00;7.20;;;;;;;16.02;65.60;102344.88;6007449;29;20266;-50
2021/08/25 03:30:25;;;;;;;9.23;8.33;;;;;;;16.13;65.54;102348.28;5998072;29;20239;-50
2021/08/25 03:33:45;;;;;;;12.10;7.73;;;;;;;16.05;66.32;102334.31;6003788;29;20273;-53
2021/08/25 03:37:06;;;;;;;8.87;7.80;;;;;;;16.06;66.82;102333.44;6001121;29;20494;-50
2021/08/25 03:40:27;;;;;;;10.80;8.13;;;;;;;15.87;67.65;102332.69;6000346;29;20239;-50
2021/08/25 03:43:50;;;;;;;9.83;8.77;;;;;;;16.18;67.29;102333.31;5998944;29;20338;-47
2021/08/25 03:47:11;;;;;;;8.53;7.30;;;;;;;16.48;65.95;102318.19;5992143;29;20681;-50
2021/08/25 03:50:32;;;;;;;9.03;7.93;;;;;;;16.52;65.61;102317.25;5994959;29;20293;-52
2021/08/25 03:53:53;;;;;;;11.43;10.20;;;;;;;16.29;66.95;102306.97;6002102;29;20239;-52
2021/08/25 03:57:14;;;;;;;9.47;8.53;;;;;;;16.45;66.10;102305.91;6007744;29;20230;-51
2021/08/25 04:00:36;;;;;;;8.73;7.83;;;;;;;16.70;65.09;102298.63;5997130;29;20235;-51
2021/08/25 04:03:56;;;;;;;8.43;7.63;;;;;;;16.49;66.38;102304.13;6002166;29;20247;-48
2021/08/25 04:07:17;;;;;;;9.13;8.30;;;;;;;16.39;67.17;102298.09;6005715;29;20239;-51
2021/08/25 04:10:40;;;;;;;12.37;9.67;;;;;;;16.29;67.79;102296.44;5999051;29;20235;-49
2021/08/25 04:14:02;;;;;;;12.03;9.53;;;;;;;16.40;67.92;102301.59;5998124;29;20621;-51
2021/08/25 04:17:24;;;;;;;10.03;8.40;;;;;;;16.45;67.11;102291.91;5999344;29;20259;-48
2021/08/25 04:20:45;;;;;;;9.87;8.80;;;;;;;16.55;67.11;102293.53;6001548;29;20239;-47
2021/08/25 04:24:06;;;;;;;9.73;8.10;;;;;;;16.71;66.04;102300.41;5989960;29;20334;-49
2021/08/25 04:27:27;;;;;;;9.33;8.47;;;;;;;16.51;66.75;102284.81;6000051;29;20239;-49
2021/08/25 04:30:48;;;;;;;9.97;8.60;;;;;;;16.42;67.17;102286.66;5998006;29;20674;-52
2021/08/25 04:34:10;;;;;;;10.60;9.47;;;;;;;16.18;68.21;102278.13;5996720;29;20997;-50
2021/08/25 04:37:31;;;;;;;11.07;9.93;;;;;;;16.08;68.99;102273.84;5993459;29;20231;-52
2021/08/25 04:40:53;;;;;;;10.20;8.90;;;;;;;16.36;67.84;102260.44;5993707;29;20676;-52
2021/08/25 04:44:14;;;;;;;10.90;9.90;;;;;;;16.49;67.59;102262.06;5990834;29;20274;-50
2021/08/25 04:47:35;;;;;;;11.30;10.20;;;;;;;16.40;68.34;102256.88;5992451;29;20239;-50
2021/08/25 04:50:57;;;;;;;11.40;10.30;;;;;;;16.31;68.92;102261.38;5991923;29;20330;-53
2021/08/25 04:54:18;;;;;;;12.80;11.23;;;;;;;16.49;68.92;102254.16;5992262;29;20235;-48
2021/08/25 04:57:39;;;;;;;11.57;10.53;;;;;;;16.60;68.55;102254.94;5994788;29;20282;-50
2021/08/25 05:01:00;;;;;;;13.10;12.00;;;;;;;16.60;69.04;102241.78;5990111;29;20231;-52
2021/08/25 05:04:21;;;;;;;11.93;10.73;;;;;;;16.83;68.21;102224.88;5990642;29;20243;-47
2021/08/25 05:07:43;;;;;;;12.97;11.67;;;;;;;16.35;70.49;102233.28;5989805;29;20243;-48
2021/08/25 05:11:05;;;;;;;17.00;12.10;;;;;;;16.60;69.67;102228.63;5991683;29;20273;-50
2021/08/25 05:14:26;;;;;;;18.93;12.80;;;;;;;16.50;70.11;102222.59;5995035;29;20232;-53
2021/08/25 05:17:47;;;;;;;13.10;11.80;;;;;;;16.37;70.86;102222.75;5991061;29;20673;-50
2021/08/25 05:21:08;;;;;;;14.80;13.37;;;;;;;16.54;70.28;102218.19;5993333;29;20231;-49
2021/08/25 05:24:31;;;;;;;13.10;11.80;;;;;;;16.69;69.75;102214.47;5998829;29;20231;-51
2021/08/25 05:27:52;;;;;;;14.10;12.20;;;;;;;16.89;69.13;102214.28;6000253;29;20322;-50
2021/08/25 05:31:13;;;;;;;13.90;12.53;;;;;;;16.84;69.62;102216.09;5994610;29;20449;-49
2021/08/25 05:34:34;;;;;;;14.47;12.17;;;;;;;16.65;70.11;102212.78;5992522;29;20259;-49
2021/08/25 05:37:55;;;;;;;14.87;13.33;;;;;;;16.78;69.84;102210.88;5995209;29;20238;-49
2021/08/25 05:41:17;;;;;;;12.60;10.87;;;;;;;17.25;68.22;102217.28;5991891;29;20251;-51
2021/08/25 05:44:38;;;;;;;14.17;12.67;;;;;;;17.28;67.61;102214.59;5983721;29;20223;-46
2021/08/25 05:47:59;;;;;;;13.20;11.97;;;;;;;17.11;68.39;102218.34;5994343;29;20239;-48
2021/08/25 05:51:20;;;;;;;13.20;11.97;;;;;;;17.20;68.18;102213.84;5990970;29;20235;-49
2021/08/25 05:54:41;;;;;;;14.30;11.73;;;;;;;17.44;67.43;102209.97;5990492;29;20235;-47
2021/08/25 05:58:05;;;;;;;12.53;11.37;;;;;;;17.42;66.97;102206.50;5990789;29;20239;-52
2021/08/25 06:01:26;;;;;;;12.30;11.00;;;;;;;17.50;67.54;102196.69;5991507;29;20342;-50
2021/08/25 06:04:46;;;;;;;11.97;10.87;;;;;;;17.06;69.23;102201.75;6005304;29;20242;-50
2021/08/25 06:08:08;;;;;;;12.33;10.23;;;;;;;17.65;67.39;102198.22;5993641;29;20235;-52
2021/08/25 06:11:28;;;;;;;12.03;9.77;;;;;;;17.59;68.12;102198.34;5985972;29;20236;-49
2021/08/25 06:14:51;;;;;;;11.60;10.07;;;;;;;17.36;69.11;102191.66;5989184;29;20577;-50
2021/08/25 06:18:11;;;;;;;12.23;10.67;;;;;;;17.31;69.03;102189.09;5992809;29;20263;-49
2021/08/25 06:21:32;;;;;;;13.67;9.33;;;;;;;17.68;67.91;102182.34;5993255;29;20242;-49
2021/08/25 06:24:53;;;;;;;13.53;9.70;;;;;;;17.87;67.60;102182.94;5991971;29;20597;-50
2021/08/25 06:28:13;;;;;;;13.03;9.17;;;;;;;17.97;67.06;102184.53;6003173;29;20240;-51
2021/08/25 06:31:36;;;;;;;12.07;8.60;;;;;;;17.90;67.26;102173.22;6002926;29;20247;-51
2021/08/25 06:34:57;;;;;;;11.67;9.43;;;;;;;18.06;67.33;102165.88;5998222;29;20239;-53
2021/08/25 06:38:18;;;;;;;11.70;8.90;;;;;;;18.25;67.08;102170.81;5999544;29;20231;-50
2021/08/25 06:41:39;;;;;;;12.00;7.80;;;;;;;18.53;66.03;102163.19;5992563;29;20325;-48
2021/08/25 06:45:01;;;;;;;9.27;7.77;;;;;;;18.17;67.28;102168.34;5998213;29;20326;-53
2021/08/25 06:48:23;;;;;;;10.13;6.75;;;;;;;18.68;66.19;102154.97;5998136;29;20243;-52
2021/08/25 06:51:44;;;;;;;7.27;6.23;;;;;;;18.70;65.62;102166.34;5996819;29;20349;-49
2021/08/25 06:55:06;;;;;;;9.37;6.77;;;;;;;18.43;66.25;102156.38;5997593;29;20545;-50
2021/08/25 06:58:27;;;;;;;6.83;5.67;;;;;;;18.52;66.66;102153.56;5989742;29;20330;-51
2021/08/25 07:01:48;;;;;;;6.50;5.78;;;;;;;18.45;66.77;102142.25;6001599;29;20239;-50
2021/08/25 07:05:11;;;;;;;10.07;6.20;;;;;;;18.92;65.24;102136.00;5982919;29;20322;-46
2021/08/25 07:08:32;;;;;;;8.38;5.40;;;;;;;18.70;66.17;102134.69;6000580;29;20239;-50
2021/08/25 07:11:53;;;;;;;6.82;5.35;;;;;;;18.59;65.85;102128.81;6003164;29;20283;-49
2021/08/25 07:15:17;;;;;;;6.05;5.05;;;;;;;18.76;65.84;102115.22;5996377;29;20329;-50
2021/08/25 07:18:38;;;;;;;8.70;5.10;;;;;;;19.26;63.24;102109.66;6001545;29;20243;-47
2021/08/25 07:22:00;;;;;;;8.45;5.47;;;;;;;19.44;62.52;102114.50;5999527;29;20227;-49
2021/08/25 07:25:21;;;;;;;5.75;4.88;;;;;;;19.70;61.77;102104.13;5998750;29;20495;-51
2021/08/25 07:28:44;;;;;;;5.15;4.10;;;;;;;19.21;62.78;102109.81;6000118;29;20239;-48
2021/08/25 07:32:05;;;;;;;6.80;4.25;;;;;;;18.97;63.97;102092.75;5994708;29;20342;-50
2021/08/25 07:35:29;;;;;;;6.82;3.95;;;;;;;19.36;61.85;102087.41;5987897;29;20611;-53
2021/08/25 07:38:51;;;;;;;4.80;4.05;;;;;;;19.54;60.78;102083.44;5998075;29;20235;-52
2021/08/25 07:42:12;;;;;;;6.55;3.95;;;;;;;18.93;63.75;102074.41;6001759;29;20235;-52
2021/08/25 07:45:35;;;;;;;5.20;3.25;;;;;;;19.04;62.92;102072.38;5998159;29;20235;-49
2021/08/25 07:48:56;;;;;;;3.13;2.63;;;;;;;19.57;60.87;102071.91;5999708;29;20330;-48
2021/08/25 07:52:17;;;;;;;3.47;2.50;;;;;;;19.39;61.51;102073.25;6004168;29;20239;-51
2021/08/25 07:55:39;;;;;;;5.78;3.38;;;;;;;18.94;62.58;102060.28;6003281;29;20231;-51
2021/08/25 07:59:00;;;;;;;4.47;2.35;;;;;;;19.22;62.10;102060.47;6000312;29;20239;-51
2021/08/25 08:02:21;;;;;;;3.00;2.35;;;;;;;19.30;61.07;102058.50;5995036;29;20231;-51
2021/08/25 08:05:44;;;;;;;4.47;1.63;;;;;;;19.71;60.28;102051.25;5998110;29;20243;-50
2021/08/25 08:09:04;;;;;;;4.43;2.30;;;;;;;19.97;58.79;102053.19;5992221;29;20228;-48
2021/08/25 08:12:27;;;;;;;2.60;1.77;;;;;;;19.91;57.97;102057.78;5997157;29;20251;-52
2021/08/25 08:15:48;;;;;;;2.97;1.67;;;;;;;20.11;57.96;102046.66;5994972;29;20250;-50
2021/08/25 08:19:18;;;;;;;3.05;1.70;;;;;;;19.77;58.77;102045.81;5985065;29;20243;-49
2021/08/25 08:22:40;;;;;;;4.13;1.25;;;;;;;19.66;58.48;102048.75;5992733;29;20266;-50
2021/08/25 08:26:00;;;;;;;2.55;1.98;;;;;;;19.81;57.17;102043.94;5983414;29;21468;-52
2021/08/25 08:29:22;;;;;;;2.38;1.52;;;;;;;19.99;56.72;102038.16;5980357;29;20246;-55
2021/08/25 08:32:44;;;;;;;3.90;1.52;;;;;;;20.15;56.60;102030.63;5982076;29;20321;-47
2021/08/25 08:36:05;;;;;;;1.60;1.25;;;;;;;20.25;56.01;102029.44;5977743;29;20244;-48
2021/08/25 08:39:26;;;;;;;1.85;1.40;;;;;;;20.51;55.04;102019.84;5992867;29;20625;-48
2021/08/25 08:42:47;;;;;;;1.90;0.95;;;;;;;20.98;53.79;102035.97;5999675;29;20991;-51
2021/08/25 08:46:13;;;;;;;3.42;1.85;;;;;;;20.45;55.03;102027.94;5998766;29;20238;-50
2021/08/25 08:49:34;;;;;;;3.58;1.63;;;;;;;19.95;56.46;102030.34;6001191;29;20259;-50
2021/08/25 08:52:56;;;;;;;4.55;1.63;;;;;;;20.12;55.76;102016.63;5993816;29;20235;-51
2021/08/25 08:56:17;;;;;;;1.40;1.10;;;;;;;19.80;56.93;102027.25;6000812;29;20235;-49
2021/08/25 08:59:38;;;;;;;3.08;1.52;;;;;;;20.26;56.21;102022.38;5971973;29;20235;-52
2021/08/25 09:03:01;;;;;;;2.97;1.33;;;;;;;20.13;56.88;102006.00;5983717;29;20239;-50
2021/08/25 09:06:42;;;;;;;2.20;1.08;;;;;;;19.75;57.36;101986.00;5996004;29;20365;-51
2021/08/25 09:10:04;;;;;;;2.22;0.90;;;;;;;20.25;55.72;101981.81;5987685;29;20226;-48
2021/08/25 09:13:34;;;;;;;1.52;1.08;;;;;;;20.23;55.57;101974.84;5991289;29;20239;-51
2021/08/25 09:17:02;;;;;;;1.58;0.75;;;;;;;20.30;56.15;101975.50;5989819;29;20242;-51
2021/08/25 09:20:25;;;;;;;2.70;1.17;;;;;;;20.42;55.65;101977.78;5984344;29;20367;-51
2021/08/25 09:23:47;;;;;;;2.75;0.88;;;;;;;20.27;55.98;101972.06;5984898;29;20554;-47
2021/08/25 09:27:09;;;;;;;1.77;0.80;;;;;;;19.63;57.78;101966.03;5991068;29;20255;-49
2021/08/25 09:30:53;;;;;;;3.17;0.73;;;;;;;19.52;58.53;101994.53;5987982;29;20235;-50
2021/08/25 09:34:25;;;;;;;1.48;0.77;;;;;;;19.75;57.89;101989.50;6001640;29;20247;-53
2021/08/25 09:37:54;;;;;;;2.50;1.02;;;;;;;19.96;57.83;101984.50;6002562;29;20242;-53
2021/08/25 09:41:15;;;;;;;3.70;0.80;;;;;;;20.15;56.92;101971.59;5988155;29;20234;-54
2021/08/25 09:44:36;;;;;;;0.88;0.70;;;;;;;20.61;55.51;101963.09;5994268;29;20243;-51
2021/08/25 09:47:59;;;;;;;3.30;0.63;;;;;;;20.96;54.67;101963.69;5999189;29;20240;-51
2021/08/25 09:51:22;;;;;;;1.65;0.80;;;;;;;21.53;52.67;101945.78;6000764;29;20274;-47
2021/08/25 09:55:00;;;;;;;2.35;0.90;;;;;;;21.17;53.71;101942.63;6010936;29;20239;-51
2021/08/25 09:58:23;;;;;;;2.85;1.75;;;;;;;21.55;52.96;101930.66;6000657;29;20599;-48
2021/08/25 10:01:45;;;;;;;1.77;1.30;;;;;;;22.03;51.78;101920.91;5999225;29;20251;-49
2021/08/25 10:05:07;;;;;;;1.75;1.20;;;;;;;22.00;51.20;101913.06;5995501;29;20235;-51
2021/08/25 10:08:28;;;;;;;4.05;1.50;;;;;;;21.55;52.20;101913.91;5993159;29;20243;-50
2021/08/25 10:11:56;;;;;;;2.05;1.10;;;;;;;21.98;50.94;101896.34;6009140;29;20516;-53
2021/08/25 10:15:45;;;;;;;0.95;0.80;;;;;;;21.35;51.99;101896.94;5995026;29;20354;-52
2021/08/25 10:19:34;;;;;;;2.78;0.93;;;;;;;20.32;54.05;101897.88;5990497;29;20239;-52
2021/08/25 10:22:55;;;;;;;4.78;1.45;;;;;;;20.00;55.12;101906.81;6004816;29;20239;-49
2021/08/25 10:26:16;;;;;;;4.88;1.73;;;;;;;20.04;55.16;101898.72;5988094;29;20227;-52
2021/08/25 10:30:14;;;;;;;2.65;0.93;;;;;;;20.36;53.74;101882.75;6002664;29;20311;-51
2021/08/25 10:33:36;;;;;;;2.80;1.10;;;;;;;20.71;51.78;101883.38;5994063;29;20243;-48
2021/08/25 10:37:30;;;;;;;2.90;1.60;;;;;;;20.81;50.41;101863.59;6000728;29;20252;-51
2021/08/25 10:40:53;;;;;;;2.60;0.90;;;;;;;20.52;50.28;101852.22;5995730;29;20610;-50
2021/08/25 10:44:46;;;;;;;2.38;1.10;;;;;;;20.87;49.73;101858.09;6001079;29;20646;-53
2021/08/25 10:48:09;;;;;;;3.05;0.98;;;;;;;20.24;51.35;101847.00;5985094;29;20235;-51
2021/08/25 10:51:36;;;;;;;3.00;1.10;;;;;;;20.12;52.26;101840.31;5999784;29;20247;-49
2021/08/25 10:54:57;;;;;;;7.50;3.70;;;;;;;20.04;52.40;101845.00;6006497;29;20920;-51
2021/08/25 10:58:41;;;;;;;2.70;1.38;;;;;;;19.92;52.90;101850.69;5998866;29;20326;-50
2021/08/25 11:02:03;;;;;;;3.35;1.50;;;;;;;20.30;50.85;101845.91;5995437;29;20267;-48
2021/08/25 11:05:25;;;;;;;3.97;1.10;;;;;;;20.27;50.71;101836.31;5991953;29;20243;-52
2021/08/25 11:08:46;;;;;;;3.25;1.40;;;;;;;20.01;51.53;101830.09;5999671;29;20240;-50
2021/08/25 11:12:09;;;;;;;1.65;1.10;;;;;;;19.80;52.74;101818.44;5992008;29;20239;-49
2021/08/25 11:15:32;;;;;;;2.47;1.00;;;;;;;19.54;53.33;101810.44;6003709;29;20231;-49
2021/08/25 11:18:53;;;;;;;2.40;1.00;;;;;;;19.43;54.12;101805.50;5999013;29;20248;-50
2021/08/25 11:22:18;;;;;;;2.53;0.73;;;;;;;19.55;53.83;101793.69;5995555;29;20239;-50
2021/08/25 11:25:53;;;;;;;2.67;1.10;;;;;;;19.46;54.41;101779.84;5999874;29;20247;-51
2021/08/25 11:29:21;;;;;;;1.98;0.77;;;;;;;19.61;54.21;101761.78;5990197;29;20535;-52
2021/08/25 11:32:45;;;;;;;3.45;1.33;;;;;;;19.48;54.47;101750.72;5998782;29;20243;-49
2021/08/25 11:36:07;;;;;;;1.58;1.27;;;;;;;19.71;53.62;101744.69;6006783;29;20781;-50
2021/08/25 11:39:30;;;;;;;1.70;0.82;;;;;;;19.45;54.59;101743.75;5989876;29;20255;-49
2021/08/25 11:42:52;;;;;;;1.70;0.80;;;;;;;19.12;57.54;101753.59;5995845;29;20603;-52
2021/08/25 11:46:23;;;;;;;1.35;0.90;;;;;;;19.27;57.29;101754.91;5999730;29;20235;-50
2021/08/25 11:49:46;;;;;;;3.33;1.30;;;;;;;19.64;56.36;101745.84;6004216;29;20235;-49
2021/08/25 11:53:13;;;;;;;0.80;0.80;;;;;;;19.73;56.54;101748.19;6004646;29;20591;-52
2021/08/25 11:56:43;;;;;;;1.77;1.30;;;;;;;19.31;57.90;101751.25;6003889;29;20759;-49
2021/08/25 12:00:05;;;;;;;2.92;1.25;;;;;;;19.17;58.28;101719.97;5991696;29;20232;-51
2021/08/25 12:03:40;;;;;;;1.75;1.10;;;;;;;19.59;57.59;101726.63;5996681;29;20258;-53
2021/08/25 12:07:01;;;;;;;4.20;1.48;;;;;;;19.65;57.57;101726.41;5992229;29;20243;-50
2021/08/25 12:10:23;;;;;;;2.95;1.00;;;;;;;20.13;56.08;101714.28;5997506;29;20243;-54
2021/08/25 12:13:46;;;;;;;2.13;1.13;;;;;;;19.52;57.80;101709.22;5987287;29;20226;-52
2021/08/25 12:17:08;;;;;;;2.33;1.02;;;;;;;19.76;57.59;101713.75;5989659;29;20235;-51
2021/08/25 12:20:34;;;;;;;2.85;1.48;;;;;;;19.39;58.93;101708.78;5999199;29;20586;-51
2021/08/25 12:23:58;;;;;;;1.08;1.00;;;;;;;18.91;59.68;101710.22;5992158;29;20235;-51
2021/08/25 12:27:19;;;;;;;4.68;1.25;;;;;;;19.24;58.58;101673.13;5993900;29;20227;-50
2021/08/25 12:30:42;;;;;;;3.70;1.30;;;;;;;19.22;58.77;101685.53;5998353;29;20240;-50
2021/08/25 12:34:05;;;;;;;2.78;1.48;;;;;;;19.53;58.11;101687.19;5981762;29;20254;-49
2021/08/25 12:37:52;;;;;;;1.40;1.10;;;;;;;19.86;57.71;101672.88;5991087;29;20617;-53
2021/08/25 12:41:13;;;;;;;0.82;0.75;;;;;;;19.32;59.46;101686.09;5998017;29;20232;-49
2021/08/25 12:44:33;;;;;;;1.13;0.80;;;;;;;19.02;61.18;101676.44;5999593;29;20504;-48
2021/08/25 12:47:57;;;;;;;2.47;1.40;;;;;;;19.34;60.52;101685.13;5990442;29;20555;-52
2021/08/25 12:51:19;;;;;;;0.88;0.77;;;;;;;18.83;62.47;101668.22;5987540;29;20239;-53
2021/08/25 12:54:40;;;;;;;1.55;0.73;;;;;;;18.94;62.44;101660.00;5991563;29;20262;-49
2021/08/25 12:58:01;;;;;;;3.28;0.90;;;;;;;19.54;60.64;101670.41;5989271;29;20231;-52
2021/08/25 13:01:22;;;;;;;2.45;0.95;;;;;;;19.16;62.34;101661.97;5997422;29;20243;-49
2021/08/25 13:04:44;;;;;;;0.98;0.75;;;;;;;18.98;62.91;101648.44;5995791;29;20231;-53
2021/08/25 13:08:05;;;;;;;2.60;0.88;;;;;;;19.02;62.60;101647.41;5997205;29;20231;-52
2021/08/25 13:11:26;;;;;;;2.30;1.52;;;;;;;19.12;62.50;101626.03;5997673;29;20235;-50
2021/08/25 13:14:47;;;;;;;3.22;1.00;;;;;;;19.14;62.82;101629.47;5995686;29;20267;-48
2021/08/25 13:18:08;;;;;;;3.05;1.40;;;;;;;19.10;63.56;101633.97;6000723;29;20239;-47
2021/08/25 13:21:30;;;;;;;4.20;1.50;;;;;;;18.93;64.22;101616.03;6003344;29;20271;-49
2021/08/25 13:24:51;;;;;;;4.00;1.42;;;;;;;18.54;65.75;101632.13;6004384;29;20242;-54
2021/08/25 13:28:12;;;;;;;1.35;1.20;;;;;;;18.87;65.13;101606.53;6000796;29;20250;-50
2021/08/25 13:31:33;;;;;;;3.28;2.97;;;;;;;18.88;65.01;101596.81;5998817;29;20478;-49
2021/08/25 13:34:54;;;;;;;2.00;1.70;;;;;;;19.07;64.43;101590.03;6001140;29;21150;-51
2021/08/25 13:38:17;;;;;;;1.20;1.10;;;;;;;18.67;66.11;101586.00;6007703;29;20235;-49
2021/08/25 13:41:38;;;;;;;1.25;1.10;;;;;;;18.35;67.36;101600.16;6005865;29;20647;-50
2021/08/25 13:44:59;;;;;;;2.42;0.93;;;;;;;18.46;66.98;101590.16;6000275;29;20590;-50
2021/08/25 13:48:20;;;;;;;0.77;0.77;;;;;;;18.43;67.52;101582.31;6000232;29;20308;-52
2021/08/25 13:51:41;;;;;;;0.90;0.90;;;;;;;18.68;67.06;101579.81;5997896;29;20243;-47
2021/08/25 13:55:03;;;;;;;1.15;1.00;;;;;;;18.54;67.92;101575.88;5996752;29;20634;-49
2021/08/25 13:58:24;;;;;;;1.08;0.90;;;;;;;18.48;68.28;101566.38;6002572;29;20323;-51
2021/08/25 14:01:45;;;;;;;1.48;0.80;;;;;;;18.43;69.06;101557.72;6000006;29;20259;-49
2021/08/25 14:05:06;;;;;;;1.20;1.00;;;;;;;18.50;68.22;101554.00;5990123;29;20232;-51
2021/08/25 14:08:27;;;;;;;1.42;1.33;;;;;;;18.37;68.98;101537.69;5991521;29;20243;-48
2021/08/25 14:11:49;;;;;;;3.55;1.23;;;;;;;18.58;69.95;101546.72;5999080;29;20228;-52
2021/08/25 14:15:11;;;;;;;1.30;1.20;;;;;;;18.57;71.14;101530.94;5998234;29;20235;-49
2021/08/25 14:18:34;;;;;;;2.10;1.30;;;;;;;18.66;70.66;101536.78;5993883;29;20239;-49
2021/08/25 14:21:54;;;;;;;1.20;1.10;;;;;;;18.53;71.05;101535.44;5999967;29;20730;-51
2021/08/25 14:25:15;;;;;;;1.55;1.45;;;;;;;18.72;70.47;101526.97;6007294;29;20223;-49
2021/08/25 14:28:38;;;;;;;2.25;2.05;;;;;;;18.14;73.35;101522.53;5995464;29;20235;-47
2021/08/25 14:31:58;;;;;;;1.60;1.50;;;;;;;18.04;73.35;101507.91;5995992;29;20277;-49
2021/08/25 14:35:20;;;;;;;3.25;1.77;;;;;;;18.50;71.77;101503.91;6004656;29;20609;-48
2021/08/25 14:38:41;;;;;;;2.00;1.80;;;;;;;18.09;73.67;101498.13;6003537;29;20238;-48
2021/08/25 14:42:02;;;;;;;2.88;2.42;;;;;;;18.04;74.25;101487.69;5991925;29;20235;-51
2021/08/25 14:45:24;;;;;;;5.50;3.07;;;;;;;18.32;72.87;101486.00;5996565;29;20235;-50
2021/08/25 14:48:45;;;;;;;2.63;2.33;;;;;;;18.36;73.09;101482.34;6002576;29;20246;-51
2021/08/25 14:52:05;;;;;;;4.13;2.70;;;;;;;18.44;72.48;101464.53;5993896;29;20605;-51
2021/08/25 14:55:28;;;;;;;5.65;2.45;;;;;;;18.05;73.51;101464.84;5999861;29;20240;-52
2021/08/25 14:58:48;;;;;;;2.60;1.80;;;;;;;18.20;74.12;101467.00;5994892;29;20910;-51
2021/08/25 15:02:11;;;;;;;4.97;2.37;;;;;;;18.06;76.07;101469.19;5993354;29;20227;-49
2021/08/25 15:05:32;;;;;;;3.43;2.53;;;;;;;18.20;75.26;101459.09;5996062;29;20235;-48
2021/08/25 15:08:53;;;;;;;3.07;2.30;;;;;;;18.35;74.67;101449.84;5996724;29;20246;-50
2021/08/25 15:12:14;;;;;;;2.40;1.97;;;;;;;18.19;75.48;101443.34;5995088;29;20235;-47
2021/08/25 15:15:35;;;;;;;2.70;2.20;;;;;;;18.22;75.69;101438.84;5999129;29;20327;-53
2021/08/25 15:18:57;;;;;;;3.03;2.53;;;;;;;18.18;76.09;101434.56;5994727;29;20505;-47
2021/08/25 15:22:19;;;;;;;2.43;2.23;;;;;;;18.12;76.53;101421.56;5997662;29;20227;-52
2021/08/25 15:25:40;;;;;;;3.50;2.17;;;;;;;17.84;78.16;101426.84;5999065;29;20258;-50
2021/08/25 15:29:01;;;;;;;2.67;2.43;;;;;;;17.76;78.30;101419.13;6003082;29;20248;-51
2021/08/25 15:32:23;;;;;;;2.00;1.80;;;;;;;17.95;78.23;101415.94;5997975;29;20243;-49
2021/08/25 15:35:45;;;;;;;1.77;1.67;;;;;;;17.99;77.93;101414.94;6002264;29;20271;-47
2021/08/25 15:39:06;;;;;;;3.43;2.67;;;;;;;18.07;77.43;101412.97;5996240;29;20590;-53